createdAt,value
2023-05-08T00:02:35.514Z,101750.27
2023-05-08T00:07:38.017Z,101748.65
2023-05-08T00:12:39.550Z,101749.58
2023-05-08T00:17:41.444Z,101747.05
2023-05-08T00:22:43.144Z,101749.09
2023-05-08T00:27:44.693Z,101748.80
2023-05-08T00:32:47.063Z,101746.27
2023-05-08T00:37:48.734Z,101746.34
2023-05-08T00:42:50.239Z,101746.59
2023-05-08T00:47:52.064Z,101753.12
2023-05-08T00:52:54.088Z,101754.07
2023-05-08T00:57:55.716Z,101766.53
2023-05-08T01:02:59.154Z,101768.80
2023-05-08T01:08:00.804Z,101772.98
2023-05-08T01:13:18.819Z,101778.02
2023-05-08T01:18:35.030Z,101781.13
2023-05-08T01:23:55.252Z,101781.70
2023-05-08T01:29:21.245Z,101783.61
2023-05-08T01:34:30.837Z,101789.00
2023-05-08T01:40:19.263Z,101792.22
2023-05-08T01:45:33.179Z,101799.13
2023-05-08T01:50:41.224Z,101801.63
2023-05-08T01:55:46.501Z,101799.33
2023-05-08T02:00:48.919Z,101803.30
2023-05-08T02:05:52.359Z,101809.62
2023-05-08T02:10:56.135Z,101807.70
2023-05-08T02:15:59.254Z,101812.56
2023-05-08T02:21:04.125Z,101814.53
2023-05-08T02:26:06.018Z,101820.94
2023-05-08T02:31:09.678Z,101820.67
2023-05-08T02:36:14.157Z,101818.23
2023-05-08T02:41:18.204Z,101820.05
2023-05-08T02:46:35.045Z,101813.69
2023-05-08T02:52:01.826Z,101826.13
2023-05-08T02:57:14.833Z,101823.52
2023-05-08T03:02:22.398Z,101829.10
2023-05-08T03:07:28.734Z,101829.21
2023-05-08T03:12:35.012Z,101827.10
2023-05-08T03:17:42.821Z,101833.52
2023-05-08T03:22:46.701Z,101830.83
2023-05-08T03:27:50.471Z,101830.10
2023-05-08T03:32:53.649Z,101829.77
2023-05-08T03:37:55.210Z,101827.98
2023-05-08T03:42:58.389Z,101826.64
2023-05-08T03:48:00.646Z,101830.79
2023-05-08T03:53:02.556Z,101831.55
2023-05-08T03:58:13.362Z,101840.77
2023-05-08T04:03:24.187Z,101848.50
2023-05-08T04:08:32.275Z,101853.08
2023-05-08T04:13:39.430Z,101853.40
2023-05-08T04:18:46.325Z,101854.30
2023-05-08T04:23:51.767Z,101855.12
2023-05-08T04:28:53.902Z,101859.29
2023-05-08T04:33:55.934Z,101865.20
2023-05-08T04:38:59.079Z,101872.19
2023-05-08T04:44:01.710Z,101882.52
2023-05-08T04:49:03.268Z,101887.08
2023-05-08T04:54:04.810Z,101892.48
2023-05-08T04:59:06.767Z,101897.11
2023-05-08T05:04:08.327Z,101899.06
2023-05-08T05:09:11.830Z,101903.17
2023-05-08T05:14:13.342Z,101911.41
2023-05-08T05:19:14.845Z,101912.52
2023-05-08T05:24:16.711Z,101917.25
2023-05-08T05:29:18.264Z,101917.37
2023-05-08T05:34:19.832Z,101914.39
2023-05-08T05:39:21.331Z,101923.24
2023-05-08T05:44:22.887Z,101924.93
2023-05-08T05:49:24.485Z,101923.26
2023-05-08T05:54:26.491Z,101926.65
2023-05-08T05:59:28.013Z,101924.84
2023-05-08T06:04:29.693Z,101933.34
2023-05-08T06:09:31.317Z,101927.92
2023-05-08T06:14:32.803Z,101932.95
2023-05-08T06:19:34.343Z,101937.90
2023-05-08T06:24:36.489Z,101937.08
2023-05-08T06:29:38.012Z,101939.52
2023-05-08T06:34:39.508Z,101933.83
2023-05-08T06:39:41.244Z,101931.08
2023-05-08T06:44:42.873Z,101927.77
2023-05-08T06:49:44.603Z,101927.76
2023-05-08T06:54:46.230Z,101928.98
2023-05-08T06:59:47.727Z,101925.48
2023-05-08T07:04:49.327Z,101927.25
2023-05-08T07:09:50.933Z,101927.16
2023-05-08T07:14:52.433Z,101931.61
2023-05-08T07:19:53.961Z,101927.10
2023-05-08T07:24:55.470Z,101922.23
2023-05-08T07:29:58.862Z,101920.91
2023-05-08T07:35:00.544Z,101924.11
2023-05-08T07:40:02.093Z,101924.77
2023-05-08T07:45:05.764Z,101924.58
2023-05-08T07:50:07.677Z,101922.38
2023-05-08T07:55:10.219Z,101923.48
2023-05-08T08:00:20.955Z,101922.55
2023-05-08T08:05:22.519Z,101922.20
2023-05-08T08:10:24.066Z,101920.39
2023-05-08T08:15:25.574Z,101925.11
2023-05-08T08:20:27.534Z,101923.27
2023-05-08T08:25:29.118Z,101922.40
2023-05-08T08:30:37.011Z,101913.28
2023-05-08T08:35:38.481Z,101913.41
2023-05-08T08:40:41.111Z,101907.43
2023-05-08T08:45:42.600Z,101904.17
2023-05-08T08:50:48.732Z,101900.02
2023-05-08T08:55:53.840Z,101898.33
2023-05-08T09:00:57.100Z,101901.38
2023-05-08T09:06:03.396Z,101895.46
2023-05-08T09:11:05.020Z,101891.97
2023-05-08T09:16:06.945Z,101890.31
2023-05-08T09:21:08.493Z,101891.95
2023-05-08T09:26:10.006Z,101884.49
2023-05-08T09:31:11.672Z,101879.80
2023-05-08T09:36:28.765Z,101881.15
2023-05-08T09:41:30.415Z,101881.02
2023-05-08T09:46:34.100Z,101882.02
2023-05-08T09:51:35.762Z,101878.30
2023-05-08T09:56:39.576Z,101870.79
2023-05-08T10:01:42.132Z,101875.58
2023-05-08T10:06:56.583Z,101873.05
2023-05-08T10:11:58.523Z,101867.68
2023-05-08T10:17:05.884Z,101862.86
2023-05-08T10:22:11.389Z,101855.72
2023-05-08T10:27:48.167Z,101848.37
2023-05-08T10:32:55.379Z,101844.86
2023-05-08T10:37:58.639Z,101842.14
2023-05-08T10:43:00.647Z,101838.91
2023-05-08T10:48:19.409Z,101837.52
2023-05-08T10:53:31.432Z,101832.92
2023-05-08T10:58:34.508Z,101827.89
2023-05-08T11:03:41.371Z,101828.52
2023-05-08T11:08:45.204Z,101822.27
2023-05-08T11:13:58.482Z,101826.80
2023-05-08T11:19:21.197Z,101827.16
2023-05-08T11:24:36.063Z,101824.70
2023-05-08T11:29:38.575Z,101822.45
2023-05-08T11:34:43.489Z,101815.55
2023-05-08T11:39:45.804Z,101809.62
2023-05-08T11:44:47.638Z,101811.64
2023-05-08T11:49:49.202Z,101805.40
2023-05-08T11:54:50.733Z,101807.24
2023-05-08T11:59:52.291Z,101803.59
2023-05-08T12:04:54.552Z,101794.88
2023-05-08T12:09:56.082Z,101789.36
2023-05-08T12:14:57.570Z,101787.10
2023-05-08T12:20:16.962Z,101782.79
2023-05-08T12:25:20.709Z,101783.42
2023-05-08T12:30:29.569Z,101781.23
2023-05-08T12:35:32.086Z,101779.90
2023-05-08T12:40:36.653Z,101775.64
2023-05-08T12:45:40.906Z,101772.41
2023-05-08T12:50:45.808Z,101768.98
2023-05-08T12:55:52.847Z,101763.20
2023-05-08T13:01:10.235Z,101752.02
2023-05-08T13:06:22.322Z,101758.73
2023-05-08T13:11:31.797Z,101757.10
2023-05-08T13:16:42.948Z,101751.83
2023-05-08T13:21:47.669Z,101740.09
2023-05-08T13:26:49.161Z,101740.58
2023-05-08T13:31:50.695Z,101737.44
2023-05-08T13:36:52.564Z,101737.06
2023-05-08T13:41:54.528Z,101735.08
2023-05-08T13:46:56.129Z,101727.92
2023-05-08T13:51:57.628Z,101724.67
2023-05-08T13:56:59.198Z,101722.37
2023-05-08T14:02:00.971Z,101721.98
2023-05-08T14:07:02.565Z,101721.41
2023-05-08T14:12:04.460Z,101714.61
2023-05-08T14:17:06.562Z,101705.61
2023-05-08T14:22:08.067Z,101701.91
2023-05-08T14:27:09.979Z,101704.36
2023-05-08T14:32:11.784Z,101713.30
2023-05-08T14:37:13.381Z,101712.34
2023-05-08T14:42:22.896Z,101708.52
2023-05-08T14:47:25.857Z,101708.30
2023-05-08T14:52:27.510Z,101708.13
2023-05-08T14:57:29.072Z,101705.29
2023-05-08T15:02:30.668Z,101700.17
2023-05-08T15:07:32.620Z,101699.88
2023-05-08T15:12:34.454Z,101696.57
2023-05-08T15:17:36.625Z,101696.79
2023-05-08T15:22:38.248Z,101701.94
2023-05-08T15:27:39.822Z,101706.48
2023-05-08T15:32:43.392Z,101711.05
2023-05-08T15:37:44.998Z,101707.93
2023-05-08T15:42:46.842Z,101704.30
2023-05-08T15:47:48.493Z,101701.19
2023-05-08T15:52:50.021Z,101692.08
2023-05-08T15:57:51.559Z,101695.48
2023-05-08T16:02:53.131Z,101690.63
2023-05-08T16:07:55.612Z,101694.56
2023-05-08T16:12:57.216Z,101689.31
2023-05-08T16:17:58.793Z,101688.22
2023-05-08T16:23:00.439Z,101685.40
2023-05-08T16:28:02.002Z,101683.13
2023-05-08T16:33:03.674Z,101681.70
2023-05-08T16:38:06.170Z,101680.09
2023-05-08T16:43:08.755Z,101681.01
2023-05-08T16:48:10.412Z,101685.89
2023-05-08T16:53:12.013Z,101681.92
2023-05-08T16:58:13.698Z,101685.61
2023-05-08T17:03:15.396Z,101689.25
2023-05-08T17:08:17.697Z,101687.06
2023-05-08T17:13:19.269Z,101693.13
2023-05-08T17:18:20.972Z,101697.13
2023-05-08T17:23:22.558Z,101699.02
2023-05-08T17:28:24.433Z,101698.83
2023-05-08T17:33:26.049Z,101699.95
2023-05-08T17:38:28.111Z,101699.40
2023-05-08T17:43:30.946Z,101703.30
2023-05-08T17:48:33.382Z,101706.19
2023-05-08T17:53:35.024Z,101709.73
2023-05-08T17:58:36.564Z,101711.65
2023-05-08T18:03:38.262Z,101715.30
2023-05-08T18:08:41.458Z,101719.09
2023-05-08T18:13:43.682Z,101722.33
2023-05-08T18:18:45.648Z,101729.56
2023-05-08T18:23:47.218Z,101730.23
2023-05-08T18:28:48.752Z,101731.77
2023-05-08T18:33:50.250Z,101740.34
2023-05-08T18:38:51.850Z,101743.00
2023-05-08T18:43:53.382Z,101744.78
2023-05-08T18:48:54.886Z,101752.91
2023-05-08T18:53:57.306Z,101757.90
2023-05-08T18:59:00.168Z,101764.42
2023-05-08T19:04:02.821Z,101771.98
2023-05-08T19:09:04.386Z,101770.94
2023-05-08T19:14:05.905Z,101775.39
2023-05-08T19:19:07.500Z,101774.30
2023-05-08T19:24:09.012Z,101770.12
2023-05-08T19:29:10.692Z,101770.77
2023-05-08T19:34:12.209Z,101772.93
2023-05-08T19:39:14.608Z,101769.60
2023-05-08T19:44:16.232Z,101768.34
2023-05-08T19:49:17.743Z,101767.89
2023-05-08T19:54:19.246Z,101770.05
2023-05-08T19:59:20.712Z,101767.20
2023-05-08T20:04:24.139Z,101765.86
2023-05-08T20:09:25.715Z,101758.89
2023-05-08T20:14:27.194Z,101755.00
2023-05-08T20:19:28.762Z,101754.20
2023-05-08T20:24:30.400Z,101749.65
2023-05-08T20:29:35.379Z,101749.39
2023-05-08T20:34:36.920Z,101747.21
2023-05-08T20:39:38.456Z,101752.24
2023-05-08T20:44:39.995Z,101754.17
2023-05-08T20:49:41.498Z,101753.88
2023-05-08T20:54:45.469Z,101757.92
2023-05-08T20:59:47.367Z,101758.69
2023-05-08T21:04:48.902Z,101757.20
2023-05-08T21:09:50.473Z,101759.05
2023-05-08T21:14:52.115Z,101757.16
2023-05-08T21:19:53.668Z,101754.08
2023-05-08T21:24:55.391Z,101755.95
2023-05-08T21:29:56.963Z,101755.67
2023-05-08T21:34:58.517Z,101755.33
2023-05-08T21:40:00.041Z,101755.73
2023-05-08T21:45:01.630Z,101755.52
2023-05-08T21:50:03.850Z,101751.45
2023-05-08T21:55:08.759Z,101754.08
2023-05-08T22:00:11.267Z,101753.61
2023-05-08T22:05:13.014Z,101752.95
2023-05-08T22:10:14.790Z,101752.45
2023-05-08T22:15:29.096Z,101749.28
2023-05-08T22:20:31.983Z,101750.00
2023-05-08T22:25:33.497Z,101749.75
2023-05-08T22:30:41.898Z,101746.36
2023-05-08T22:35:43.602Z,101741.10
2023-05-08T22:40:47.695Z,101742.36
2023-05-08T22:45:49.831Z,101738.34
2023-05-08T22:50:51.758Z,101737.83
2023-05-08T22:55:53.266Z,101732.89
2023-05-08T23:00:55.727Z,101738.09
2023-05-08T23:05:57.290Z,101736.27
2023-05-08T23:10:58.822Z,101737.65
2023-05-08T23:16:00.422Z,101743.33
2023-05-08T23:21:06.665Z,101741.30
2023-05-08T23:26:08.237Z,101743.20
2023-05-08T23:31:09.991Z,101740.91
2023-05-08T23:36:11.689Z,101740.61
2023-05-08T23:41:13.948Z,101739.79
2023-05-08T23:46:15.857Z,101737.92
2023-05-08T23:51:17.349Z,101734.46
2023-05-08T23:56:18.826Z,101739.51
